sensor_id;sensor_type;location;lat;lon;timestamp;P1;durP1;ratioP1;P2;durP2;ratioP2
4650;SDS011;2338;49.602;8.722;2022-07-17T00:01:26;5.87;;;3.53;;
4650;SDS011;2338;49.602;8.722;2022-07-17T00:04:12;4.73;;;3.83;;
4650;SDS011;2338;49.602;8.722;2022-07-17T00:06:58;4.87;;;3.57;;
4650;SDS011;2338;49.602;8.722;2022-07-17T00:09:44;10.13;;;4.47;;
4650;SDS011;2338;49.602;8.722;2022-07-17T00:12:30;6.73;;;4.23;;
4650;SDS011;2338;49.602;8.722;2022-07-17T00:15:17;5.53;;;3.87;;
4650;SDS011;2338;49.602;8.722;2022-07-17T00:18:04;5.50;;;4.47;;
4650;SDS011;2338;49.602;8.722;2022-07-17T00:20:50;5.30;;;3.97;;
4650;SDS011;2338;49.602;8.722;2022-07-17T00:23:36;6.60;;;4.17;;
4650;SDS011;2338;49.602;8.722;2022-07-17T00:26:23;9.03;;;3.47;;
4650;SDS011;2338;49.602;8.722;2022-07-17T00:29:09;4.80;;;3.43;;
4650;SDS011;2338;49.602;8.722;2022-07-17T00:31:56;4.40;;;3.43;;
4650;SDS011;2338;49.602;8.722;2022-07-17T00:34:42;5.30;;;3.60;;
4650;SDS011;2338;49.602;8.722;2022-07-17T00:37:28;4.40;;;3.27;;
4650;SDS011;2338;49.602;8.722;2022-07-17T00:40:16;5.23;;;3.97;;
4650;SDS011;2338;49.602;8.722;2022-07-17T00:43:02;3.40;;;2.90;;
4650;SDS011;2338;49.602;8.722;2022-07-17T00:45:53;3.53;;;3.10;;
4650;SDS011;2338;49.602;8.722;2022-07-17T00:48:42;4.10;;;3.27;;
4650;SDS011;2338;49.602;8.722;2022-07-17T00:51:28;4.70;;;3.37;;
4650;SDS011;2338;49.602;8.722;2022-07-17T00:54:13;6.00;;;3.57;;
4650;SDS011;2338;49.602;8.722;2022-07-17T00:57:00;4.53;;;3.17;;
4650;SDS011;2338;49.602;8.722;2022-07-17T00:59:50;4.53;;;3.60;;
4650;SDS011;2338;49.602;8.722;2022-07-17T01:02:36;4.90;;;2.97;;
4650;SDS011;2338;49.602;8.722;2022-07-17T01:05:23;3.77;;;2.97;;
4650;SDS011;2338;49.602;8.722;2022-07-17T01:08:10;4.50;;;2.93;;
4650;SDS011;2338;49.602;8.722;2022-07-17T01:10:56;5.30;;;3.37;;
4650;SDS011;2338;49.602;8.722;2022-07-17T01:13:41;4.30;;;3.40;;
4650;SDS011;2338;49.602;8.722;2022-07-17T01:16:27;3.50;;;2.80;;
4650;SDS011;2338;49.602;8.722;2022-07-17T01:19:14;3.63;;;2.70;;
4650;SDS011;2338;49.602;8.722;2022-07-17T01:22:01;6.90;;;2.93;;
4650;SDS011;2338;49.602;8.722;2022-07-17T01:24:47;7.43;;;3.40;;
4650;SDS011;2338;49.602;8.722;2022-07-17T01:27:33;5.63;;;2.90;;
4650;SDS011;2338;49.602;8.722;2022-07-17T01:30:19;5.33;;;3.13;;
4650;SDS011;2338;49.602;8.722;2022-07-17T01:33:04;5.37;;;3.00;;
4650;SDS011;2338;49.602;8.722;2022-07-17T01:35:50;4.30;;;2.70;;
4650;SDS011;2338;49.602;8.722;2022-07-17T01:38:38;4.00;;;2.80;;
4650;SDS011;2338;49.602;8.722;2022-07-17T01:41:23;3.17;;;2.60;;
4650;SDS011;2338;49.602;8.722;2022-07-17T01:44:09;6.30;;;3.13;;
4650;SDS011;2338;49.602;8.722;2022-07-17T01:46:55;5.00;;;2.80;;
4650;SDS011;2338;49.602;8.722;2022-07-17T01:49:43;4.60;;;2.70;;
4650;SDS011;2338;49.602;8.722;2022-07-17T01:52:29;4.00;;;2.50;;
4650;SDS011;2338;49.602;8.722;2022-07-17T01:55:16;3.53;;;2.50;;
4650;SDS011;2338;49.602;8.722;2022-07-17T01:58:02;3.93;;;3.40;;
4650;SDS011;2338;49.602;8.722;2022-07-17T02:00:50;4.63;;;2.87;;
4650;SDS011;2338;49.602;8.722;2022-07-17T02:03:36;3.87;;;2.90;;
4650;SDS011;2338;49.602;8.722;2022-07-17T02:06:21;5.77;;;2.60;;
4650;SDS011;2338;49.602;8.722;2022-07-17T02:09:07;7.63;;;3.07;;
4650;SDS011;2338;49.602;8.722;2022-07-17T02:11:54;3.97;;;2.43;;
4650;SDS011;2338;49.602;8.722;2022-07-17T02:14:39;7.53;;;3.30;;
4650;SDS011;2338;49.602;8.722;2022-07-17T02:17:25;3.63;;;2.10;;
4650;SDS011;2338;49.602;8.722;2022-07-17T02:20:11;4.67;;;2.37;;
4650;SDS011;2338;49.602;8.722;2022-07-17T02:22:57;7.90;;;2.73;;
4650;SDS011;2338;49.602;8.722;2022-07-17T02:25:42;5.43;;;2.87;;
4650;SDS011;2338;49.602;8.722;2022-07-17T02:28:29;6.20;;;2.30;;
4650;SDS011;2338;49.602;8.722;2022-07-17T02:31:15;3.50;;;2.40;;
4650;SDS011;2338;49.602;8.722;2022-07-17T02:34:00;5.33;;;2.47;;
4650;SDS011;2338;49.602;8.722;2022-07-17T02:36:46;6.63;;;2.80;;
4650;SDS011;2338;49.602;8.722;2022-07-17T02:39:32;3.33;;;2.40;;
4650;SDS011;2338;49.602;8.722;2022-07-17T02:42:18;3.03;;;2.20;;
4650;SDS011;2338;49.602;8.722;2022-07-17T02:45:06;5.13;;;2.37;;
4650;SDS011;2338;49.602;8.722;2022-07-17T02:47:53;3.10;;;2.20;;
4650;SDS011;2338;49.602;8.722;2022-07-17T02:50:39;3.90;;;2.20;;
4650;SDS011;2338;49.602;8.722;2022-07-17T02:53:25;8.80;;;2.60;;
4650;SDS011;2338;49.602;8.722;2022-07-17T02:56:12;6.70;;;2.23;;
4650;SDS011;2338;49.602;8.722;2022-07-17T02:58:57;5.80;;;2.87;;
4650;SDS011;2338;49.602;8.722;2022-07-17T03:01:45;3.03;;;2.03;;
4650;SDS011;2338;49.602;8.722;2022-07-17T03:04:30;3.00;;;1.97;;
4650;SDS011;2338;49.602;8.722;2022-07-17T03:07:16;3.57;;;2.23;;
4650;SDS011;2338;49.602;8.722;2022-07-17T03:10:02;4.10;;;2.67;;
4650;SDS011;2338;49.602;8.722;2022-07-17T03:12:48;3.40;;;2.20;;
4650;SDS011;2338;49.602;8.722;2022-07-17T03:15:34;3.10;;;2.00;;
4650;SDS011;2338;49.602;8.722;2022-07-17T03:18:20;3.90;;;2.40;;
4650;SDS011;2338;49.602;8.722;2022-07-17T03:21:06;4.20;;;2.03;;
4650;SDS011;2338;49.602;8.722;2022-07-17T03:23:52;6.53;;;1.70;;
4650;SDS011;2338;49.602;8.722;2022-07-17T03:26:38;3.60;;;2.03;;
4650;SDS011;2338;49.602;8.722;2022-07-17T03:29:23;3.90;;;2.00;;
4650;SDS011;2338;49.602;8.722;2022-07-17T03:32:09;2.83;;;1.90;;
4650;SDS011;2338;49.602;8.722;2022-07-17T03:34:56;4.10;;;2.47;;
4650;SDS011;2338;49.602;8.722;2022-07-17T03:37:42;5.00;;;2.20;;
4650;SDS011;2338;49.602;8.722;2022-07-17T03:40:28;4.00;;;2.27;;
4650;SDS011;2338;49.602;8.722;2022-07-17T03:43:14;6.47;;;2.30;;
4650;SDS011;2338;49.602;8.722;2022-07-17T03:46:00;6.57;;;1.73;;
4650;SDS011;2338;49.602;8.722;2022-07-17T03:48:46;5.00;;;1.63;;
4650;SDS011;2338;49.602;8.722;2022-07-17T03:51:33;2.77;;;1.77;;
4650;SDS011;2338;49.602;8.722;2022-07-17T03:54:19;6.43;;;2.00;;
4650;SDS011;2338;49.602;8.722;2022-07-17T03:57:04;5.53;;;2.37;;
4650;SDS011;2338;49.602;8.722;2022-07-17T03:59:50;4.23;;;2.33;;
4650;SDS011;2338;49.602;8.722;2022-07-17T04:02:35;7.13;;;2.10;;
4650;SDS011;2338;49.602;8.722;2022-07-17T04:05:21;3.20;;;1.97;;
4650;SDS011;2338;49.602;8.722;2022-07-17T04:08:09;4.07;;;1.60;;
4650;SDS011;2338;49.602;8.722;2022-07-17T04:10:56;6.17;;;1.73;;
4650;SDS011;2338;49.602;8.722;2022-07-17T04:13:42;4.43;;;2.00;;
4650;SDS011;2338;49.602;8.722;2022-07-17T04:16:28;4.80;;;1.80;;
4650;SDS011;2338;49.602;8.722;2022-07-17T04:19:13;4.83;;;2.00;;
4650;SDS011;2338;49.602;8.722;2022-07-17T04:21:59;6.37;;;2.00;;
4650;SDS011;2338;49.602;8.722;2022-07-17T04:24:46;4.20;;;1.70;;
4650;SDS011;2338;49.602;8.722;2022-07-17T04:27:32;10.70;;;1.83;;
4650;SDS011;2338;49.602;8.722;2022-07-17T04:30:18;5.30;;;2.37;;
4650;SDS011;2338;49.602;8.722;2022-07-17T04:33:03;3.90;;;1.90;;
4650;SDS011;2338;49.602;8.722;2022-07-17T04:35:49;4.63;;;1.70;;
4650;SDS011;2338;49.602;8.722;2022-07-17T04:38:35;3.83;;;1.80;;
4650;SDS011;2338;49.602;8.722;2022-07-17T04:41:22;4.77;;;1.90;;
4650;SDS011;2338;49.602;8.722;2022-07-17T04:44:07;4.47;;;1.70;;
4650;SDS011;2338;49.602;8.722;2022-07-17T04:46:53;3.47;;;1.60;;
4650;SDS011;2338;49.602;8.722;2022-07-17T04:49:39;5.20;;;1.63;;
4650;SDS011;2338;49.602;8.722;2022-07-17T04:52:25;4.43;;;1.50;;
4650;SDS011;2338;49.602;8.722;2022-07-17T04:55:11;7.30;;;1.67;;
4650;SDS011;2338;49.602;8.722;2022-07-17T04:57:58;4.00;;;1.63;;
4650;SDS011;2338;49.602;8.722;2022-07-17T05:00:44;6.40;;;1.73;;
4650;SDS011;2338;49.602;8.722;2022-07-17T05:03:30;6.43;;;2.07;;
4650;SDS011;2338;49.602;8.722;2022-07-17T05:06:15;3.30;;;1.60;;
4650;SDS011;2338;49.602;8.722;2022-07-17T05:09:01;5.63;;;1.87;;
4650;SDS011;2338;49.602;8.722;2022-07-17T05:11:47;5.00;;;2.50;;
4650;SDS011;2338;49.602;8.722;2022-07-17T05:14:34;4.27;;;1.50;;
4650;SDS011;2338;49.602;8.722;2022-07-17T05:17:19;6.60;;;1.97;;
4650;SDS011;2338;49.602;8.722;2022-07-17T05:20:06;7.10;;;2.00;;
4650;SDS011;2338;49.602;8.722;2022-07-17T05:22:52;2.63;;;1.70;;
4650;SDS011;2338;49.602;8.722;2022-07-17T05:25:38;7.90;;;1.80;;
4650;SDS011;2338;49.602;8.722;2022-07-17T05:28:24;2.17;;;1.30;;
4650;SDS011;2338;49.602;8.722;2022-07-17T05:31:11;4.10;;;1.40;;
4650;SDS011;2338;49.602;8.722;2022-07-17T05:33:57;3.90;;;1.70;;
4650;SDS011;2338;49.602;8.722;2022-07-17T05:36:42;3.53;;;1.70;;
4650;SDS011;2338;49.602;8.722;2022-07-17T05:39:29;3.07;;;1.70;;
4650;SDS011;2338;49.602;8.722;2022-07-17T05:42:15;5.40;;;2.00;;
4650;SDS011;2338;49.602;8.722;2022-07-17T05:45:00;3.60;;;1.70;;
4650;SDS011;2338;49.602;8.722;2022-07-17T05:47:47;3.50;;;1.93;;
4650;SDS011;2338;49.602;8.722;2022-07-17T05:50:33;2.33;;;1.27;;
4650;SDS011;2338;49.602;8.722;2022-07-17T05:53:20;3.77;;;1.90;;
4650;SDS011;2338;49.602;8.722;2022-07-17T05:56:05;3.70;;;1.90;;
4650;SDS011;2338;49.602;8.722;2022-07-17T05:58:51;7.20;;;2.20;;
4650;SDS011;2338;49.602;8.722;2022-07-17T06:01:37;3.30;;;1.60;;
4650;SDS011;2338;49.602;8.722;2022-07-17T06:04:23;4.43;;;1.57;;
4650;SDS011;2338;49.602;8.722;2022-07-17T06:07:09;3.20;;;1.67;;
4650;SDS011;2338;49.602;8.722;2022-07-17T06:09:55;2.93;;;1.37;;
4650;SDS011;2338;49.602;8.722;2022-07-17T06:12:41;4.00;;;1.73;;
4650;SDS011;2338;49.602;8.722;2022-07-17T06:15:26;6.50;;;2.03;;
4650;SDS011;2338;49.602;8.722;2022-07-17T06:18:12;6.80;;;1.57;;
4650;SDS011;2338;49.602;8.722;2022-07-17T06:20:59;8.90;;;1.60;;
4650;SDS011;2338;49.602;8.722;2022-07-17T06:23:45;2.93;;;1.50;;
4650;SDS011;2338;49.602;8.722;2022-07-17T06:26:31;5.43;;;1.73;;
4650;SDS011;2338;49.602;8.722;2022-07-17T06:29:16;9.67;;;1.40;;
4650;SDS011;2338;49.602;8.722;2022-07-17T06:32:02;4.50;;;1.30;;
4650;SDS011;2338;49.602;8.722;2022-07-17T06:34:48;5.40;;;1.87;;
4650;SDS011;2338;49.602;8.722;2022-07-17T06:37:36;8.20;;;1.60;;
4650;SDS011;2338;49.602;8.722;2022-07-17T06:40:22;11.43;;;1.50;;
4650;SDS011;2338;49.602;8.722;2022-07-17T06:43:07;3.93;;;1.77;;
4650;SDS011;2338;49.602;8.722;2022-07-17T06:45:53;3.37;;;1.40;;
4650;SDS011;2338;49.602;8.722;2022-07-17T06:48:39;3.93;;;1.57;;
4650;SDS011;2338;49.602;8.722;2022-07-17T06:51:24;2.97;;;1.37;;
4650;SDS011;2338;49.602;8.722;2022-07-17T06:54:12;2.77;;;1.30;;
4650;SDS011;2338;49.602;8.722;2022-07-17T06:56:57;3.00;;;1.30;;
4650;SDS011;2338;49.602;8.722;2022-07-17T06:59:43;4.63;;;1.80;;
4650;SDS011;2338;49.602;8.722;2022-07-17T07:02:29;4.60;;;1.43;;
4650;SDS011;2338;49.602;8.722;2022-07-17T07:05:15;5.00;;;1.80;;
4650;SDS011;2338;49.602;8.722;2022-07-17T07:08:00;8.10;;;1.37;;
4650;SDS011;2338;49.602;8.722;2022-07-17T07:10:47;7.57;;;1.50;;
4650;SDS011;2338;49.602;8.722;2022-07-17T07:13:33;4.43;;;1.80;;
4650;SDS011;2338;49.602;8.722;2022-07-17T07:16:19;6.50;;;1.97;;
4650;SDS011;2338;49.602;8.722;2022-07-17T07:19:05;11.23;;;2.17;;
4650;SDS011;2338;49.602;8.722;2022-07-17T07:21:50;4.57;;;1.63;;
4650;SDS011;2338;49.602;8.722;2022-07-17T07:24:36;3.87;;;1.30;;
4650;SDS011;2338;49.602;8.722;2022-07-17T07:27:23;4.10;;;1.60;;
4650;SDS011;2338;49.602;8.722;2022-07-17T07:30:09;2.63;;;1.17;;
4650;SDS011;2338;49.602;8.722;2022-07-17T07:32:55;7.40;;;1.67;;
4650;SDS011;2338;49.602;8.722;2022-07-17T07:35:41;6.80;;;1.30;;
4650;SDS011;2338;49.602;8.722;2022-07-17T07:38:27;5.20;;;1.30;;
4650;SDS011;2338;49.602;8.722;2022-07-17T07:41:13;3.50;;;1.30;;
4650;SDS011;2338;49.602;8.722;2022-07-17T07:44:00;5.03;;;1.27;;
4650;SDS011;2338;49.602;8.722;2022-07-17T07:46:46;4.80;;;1.80;;
4650;SDS011;2338;49.602;8.722;2022-07-17T07:49:31;3.77;;;1.20;;
4650;SDS011;2338;49.602;8.722;2022-07-17T07:52:17;7.53;;;1.73;;
4650;SDS011;2338;49.602;8.722;2022-07-17T07:55:03;3.47;;;1.73;;
4650;SDS011;2338;49.602;8.722;2022-07-17T07:57:49;6.03;;;1.80;;
4650;SDS011;2338;49.602;8.722;2022-07-17T08:00:47;9.60;;;2.50;;
4650;SDS011;2338;49.602;8.722;2022-07-17T08:03:32;4.13;;;1.73;;
4650;SDS011;2338;49.602;8.722;2022-07-17T08:06:18;5.17;;;2.20;;
4650;SDS011;2338;49.602;8.722;2022-07-17T08:09:04;4.30;;;1.80;;
4650;SDS011;2338;49.602;8.722;2022-07-17T08:11:50;4.67;;;1.60;;
4650;SDS011;2338;49.602;8.722;2022-07-17T08:14:36;6.17;;;1.50;;
4650;SDS011;2338;49.602;8.722;2022-07-17T08:17:23;2.97;;;1.30;;
4650;SDS011;2338;49.602;8.722;2022-07-17T08:20:09;2.20;;;1.20;;
4650;SDS011;2338;49.602;8.722;2022-07-17T08:22:56;6.40;;;1.80;;
4650;SDS011;2338;49.602;8.722;2022-07-17T08:25:42;4.10;;;1.50;;
4650;SDS011;2338;49.602;8.722;2022-07-17T08:28:30;4.10;;;1.30;;
4650;SDS011;2338;49.602;8.722;2022-07-17T08:31:16;4.63;;;1.40;;
4650;SDS011;2338;49.602;8.722;2022-07-17T08:34:02;3.60;;;1.23;;
4650;SDS011;2338;49.602;8.722;2022-07-17T08:36:48;2.30;;;1.03;;
4650;SDS011;2338;49.602;8.722;2022-07-17T08:39:34;3.50;;;1.60;;
4650;SDS011;2338;49.602;8.722;2022-07-17T08:42:20;5.20;;;1.40;;
4650;SDS011;2338;49.602;8.722;2022-07-17T08:45:06;4.40;;;1.53;;
4650;SDS011;2338;49.602;8.722;2022-07-17T08:47:52;3.77;;;1.30;;
4650;SDS011;2338;49.602;8.722;2022-07-17T08:50:40;4.03;;;1.20;;
4650;SDS011;2338;49.602;8.722;2022-07-17T08:53:26;3.70;;;1.33;;
4650;SDS011;2338;49.602;8.722;2022-07-17T08:56:12;6.00;;;1.37;;
4650;SDS011;2338;49.602;8.722;2022-07-17T08:58:58;5.43;;;1.83;;
4650;SDS011;2338;49.602;8.722;2022-07-17T09:01:44;5.63;;;1.60;;
4650;SDS011;2338;49.602;8.722;2022-07-17T09:04:29;2.83;;;1.20;;
4650;SDS011;2338;49.602;8.722;2022-07-17T09:07:17;5.67;;;1.60;;
4650;SDS011;2338;49.602;8.722;2022-07-17T09:10:02;2.80;;;1.03;;
4650;SDS011;2338;49.602;8.722;2022-07-17T09:12:48;3.00;;;1.57;;
4650;SDS011;2338;49.602;8.722;2022-07-17T09:15:34;7.77;;;3.17;;
4650;SDS011;2338;49.602;8.722;2022-07-17T09:18:20;6.90;;;1.87;;
4650;SDS011;2338;49.602;8.722;2022-07-17T09:21:07;4.00;;;1.83;;
4650;SDS011;2338;49.602;8.722;2022-07-17T09:24:03;7.43;;;1.50;;
4650;SDS011;2338;49.602;8.722;2022-07-17T09:26:50;9.53;;;1.53;;
4650;SDS011;2338;49.602;8.722;2022-07-17T09:29:48;3.83;;;1.30;;
4650;SDS011;2338;49.602;8.722;2022-07-17T09:32:36;2.40;;;1.30;;
4650;SDS011;2338;49.602;8.722;2022-07-17T09:35:24;3.87;;;1.50;;
4650;SDS011;2338;49.602;8.722;2022-07-17T09:38:10;5.20;;;1.40;;
4650;SDS011;2338;49.602;8.722;2022-07-17T09:41:03;4.63;;;1.40;;
4650;SDS011;2338;49.602;8.722;2022-07-17T09:43:56;3.17;;;1.60;;
4650;SDS011;2338;49.602;8.722;2022-07-17T09:46:44;2.73;;;1.10;;
4650;SDS011;2338;49.602;8.722;2022-07-17T09:49:30;5.30;;;1.17;;
4650;SDS011;2338;49.602;8.722;2022-07-17T09:52:17;3.13;;;1.20;;
4650;SDS011;2338;49.602;8.722;2022-07-17T09:55:03;2.60;;;1.20;;
4650;SDS011;2338;49.602;8.722;2022-07-17T09:57:51;3.60;;;1.17;;
4650;SDS011;2338;49.602;8.722;2022-07-17T10:00:39;5.43;;;1.77;;
4650;SDS011;2338;49.602;8.722;2022-07-17T10:03:25;5.43;;;2.20;;
4650;SDS011;2338;49.602;8.722;2022-07-17T10:06:11;3.40;;;1.93;;
4650;SDS011;2338;49.602;8.722;2022-07-17T10:08:57;4.00;;;1.60;;
4650;SDS011;2338;49.602;8.722;2022-07-17T10:11:43;4.57;;;1.37;;
4650;SDS011;2338;49.602;8.722;2022-07-17T10:14:30;3.40;;;1.20;;
4650;SDS011;2338;49.602;8.722;2022-07-17T10:17:20;4.17;;;1.20;;
4650;SDS011;2338;49.602;8.722;2022-07-17T10:20:08;2.87;;;1.20;;
4650;SDS011;2338;49.602;8.722;2022-07-17T10:22:55;5.13;;;1.53;;
4650;SDS011;2338;49.602;8.722;2022-07-17T10:25:41;3.50;;;1.00;;
4650;SDS011;2338;49.602;8.722;2022-07-17T10:28:37;4.70;;;1.60;;
4650;SDS011;2338;49.602;8.722;2022-07-17T10:31:26;3.87;;;1.67;;
4650;SDS011;2338;49.602;8.722;2022-07-17T10:34:13;3.37;;;1.57;;
4650;SDS011;2338;49.602;8.722;2022-07-17T10:36:59;8.13;;;1.93;;
4650;SDS011;2338;49.602;8.722;2022-07-17T10:39:55;4.00;;;1.90;;
4650;SDS011;2338;49.602;8.722;2022-07-17T10:42:49;2.43;;;1.23;;
4650;SDS011;2338;49.602;8.722;2022-07-17T10:45:40;3.70;;;1.10;;
4650;SDS011;2338;49.602;8.722;2022-07-17T10:48:28;5.13;;;1.87;;
4650;SDS011;2338;49.602;8.722;2022-07-17T10:51:14;3.87;;;1.60;;
4650;SDS011;2338;49.602;8.722;2022-07-17T10:54:00;7.13;;;2.10;;
4650;SDS011;2338;49.602;8.722;2022-07-17T10:56:46;3.20;;;1.40;;
4650;SDS011;2338;49.602;8.722;2022-07-17T10:59:33;3.63;;;1.60;;
4650;SDS011;2338;49.602;8.722;2022-07-17T11:02:26;3.17;;;1.70;;
4650;SDS011;2338;49.602;8.722;2022-07-17T11:05:15;3.10;;;1.40;;
4650;SDS011;2338;49.602;8.722;2022-07-17T11:08:01;3.20;;;1.30;;
4650;SDS011;2338;49.602;8.722;2022-07-17T11:10:52;2.60;;;1.53;;
4650;SDS011;2338;49.602;8.722;2022-07-17T11:13:38;3.17;;;1.07;;
4650;SDS011;2338;49.602;8.722;2022-07-17T11:16:24;2.90;;;1.43;;
4650;SDS011;2338;49.602;8.722;2022-07-17T11:19:10;2.70;;;1.30;;
4650;SDS011;2338;49.602;8.722;2022-07-17T11:21:59;3.60;;;1.30;;
4650;SDS011;2338;49.602;8.722;2022-07-17T11:24:46;3.17;;;1.23;;
4650;SDS011;2338;49.602;8.722;2022-07-17T11:27:32;7.07;;;1.20;;
4650;SDS011;2338;49.602;8.722;2022-07-17T11:30:19;2.60;;;1.50;;
4650;SDS011;2338;49.602;8.722;2022-07-17T11:33:14;3.50;;;1.40;;
4650;SDS011;2338;49.602;8.722;2022-07-17T11:36:00;3.40;;;1.53;;
4650;SDS011;2338;49.602;8.722;2022-07-17T11:38:47;7.33;;;1.70;;
4650;SDS011;2338;49.602;8.722;2022-07-17T11:41:34;3.20;;;2.10;;
4650;SDS011;2338;49.602;8.722;2022-07-17T11:44:23;3.10;;;1.43;;
4650;SDS011;2338;49.602;8.722;2022-07-17T11:47:09;3.43;;;1.30;;
4650;SDS011;2338;49.602;8.722;2022-07-17T11:50:03;3.47;;;1.40;;
4650;SDS011;2338;49.602;8.722;2022-07-17T11:52:50;3.40;;;1.40;;
4650;SDS011;2338;49.602;8.722;2022-07-17T11:55:38;4.73;;;1.50;;
4650;SDS011;2338;49.602;8.722;2022-07-17T11:58:24;4.27;;;1.53;;
4650;SDS011;2338;49.602;8.722;2022-07-17T12:01:10;3.33;;;1.43;;
4650;SDS011;2338;49.602;8.722;2022-07-17T12:03:57;4.13;;;1.20;;
4650;SDS011;2338;49.602;8.722;2022-07-17T12:06:43;3.50;;;1.10;;
4650;SDS011;2338;49.602;8.722;2022-07-17T12:09:31;4.20;;;1.23;;
4650;SDS011;2338;49.602;8.722;2022-07-17T12:12:20;2.73;;;1.27;;
4650;SDS011;2338;49.602;8.722;2022-07-17T12:15:06;4.43;;;1.20;;
4650;SDS011;2338;49.602;8.722;2022-07-17T12:17:52;5.90;;;1.43;;
4650;SDS011;2338;49.602;8.722;2022-07-17T12:20:42;2.80;;;1.40;;
4650;SDS011;2338;49.602;8.722;2022-07-17T12:23:29;5.50;;;1.40;;
4650;SDS011;2338;49.602;8.722;2022-07-17T12:26:16;2.97;;;1.20;;
4650;SDS011;2338;49.602;8.722;2022-07-17T12:29:05;3.37;;;1.43;;
4650;SDS011;2338;49.602;8.722;2022-07-17T12:32:00;4.33;;;1.40;;
4650;SDS011;2338;49.602;8.722;2022-07-17T12:34:49;2.50;;;1.27;;
4650;SDS011;2338;49.602;8.722;2022-07-17T12:37:35;3.17;;;1.37;;
4650;SDS011;2338;49.602;8.722;2022-07-17T12:40:21;2.80;;;1.00;;
4650;SDS011;2338;49.602;8.722;2022-07-17T12:43:07;7.07;;;1.50;;
4650;SDS011;2338;49.602;8.722;2022-07-17T12:45:54;2.63;;;1.10;;
4650;SDS011;2338;49.602;8.722;2022-07-17T12:48:40;4.60;;;1.43;;
4650;SDS011;2338;49.602;8.722;2022-07-17T12:51:27;3.10;;;1.43;;
4650;SDS011;2338;49.602;8.722;2022-07-17T12:54:14;3.53;;;1.70;;
4650;SDS011;2338;49.602;8.722;2022-07-17T12:56:59;3.30;;;1.40;;
4650;SDS011;2338;49.602;8.722;2022-07-17T12:59:45;2.33;;;1.30;;
4650;SDS011;2338;49.602;8.722;2022-07-17T13:02:32;3.50;;;1.23;;
4650;SDS011;2338;49.602;8.722;2022-07-17T13:05:18;4.03;;;1.70;;
4650;SDS011;2338;49.602;8.722;2022-07-17T13:08:04;7.03;;;1.40;;
4650;SDS011;2338;49.602;8.722;2022-07-17T13:10:49;4.67;;;1.80;;
4650;SDS011;2338;49.602;8.722;2022-07-17T13:13:35;2.73;;;1.50;;
4650;SDS011;2338;49.602;8.722;2022-07-17T13:16:21;4.97;;;1.20;;
4650;SDS011;2338;49.602;8.722;2022-07-17T13:19:09;3.07;;;1.60;;
4650;SDS011;2338;49.602;8.722;2022-07-17T13:21:55;3.07;;;1.47;;
4650;SDS011;2338;49.602;8.722;2022-07-17T13:24:40;4.50;;;1.93;;
4650;SDS011;2338;49.602;8.722;2022-07-17T13:27:25;6.37;;;1.40;;
4650;SDS011;2338;49.602;8.722;2022-07-17T13:30:11;2.83;;;1.10;;
4650;SDS011;2338;49.602;8.722;2022-07-17T13:32:57;7.53;;;1.53;;
4650;SDS011;2338;49.602;8.722;2022-07-17T13:35:45;4.90;;;2.00;;
4650;SDS011;2338;49.602;8.722;2022-07-17T13:38:31;3.70;;;2.13;;
4650;SDS011;2338;49.602;8.722;2022-07-17T13:41:17;3.10;;;1.50;;
4650;SDS011;2338;49.602;8.722;2022-07-17T13:44:03;2.80;;;1.33;;
4650;SDS011;2338;49.602;8.722;2022-07-17T13:46:50;4.40;;;1.60;;
4650;SDS011;2338;49.602;8.722;2022-07-17T13:49:35;4.27;;;1.47;;
4650;SDS011;2338;49.602;8.722;2022-07-17T13:52:22;5.00;;;1.47;;
4650;SDS011;2338;49.602;8.722;2022-07-17T13:55:08;2.50;;;1.13;;
4650;SDS011;2338;49.602;8.722;2022-07-17T13:57:54;5.43;;;1.43;;
4650;SDS011;2338;49.602;8.722;2022-07-17T14:00:39;6.60;;;1.93;;
4650;SDS011;2338;49.602;8.722;2022-07-17T14:03:25;3.70;;;1.70;;
4650;SDS011;2338;49.602;8.722;2022-07-17T14:06:11;4.67;;;1.60;;
4650;SDS011;2338;49.602;8.722;2022-07-17T14:08:58;6.43;;;2.00;;
4650;SDS011;2338;49.602;8.722;2022-07-17T14:11:44;3.87;;;1.70;;
4650;SDS011;2338;49.602;8.722;2022-07-17T14:14:30;8.90;;;1.67;;
4650;SDS011;2338;49.602;8.722;2022-07-17T14:17:16;3.60;;;1.37;;
4650;SDS011;2338;49.602;8.722;2022-07-17T14:20:02;4.30;;;1.70;;
4650;SDS011;2338;49.602;8.722;2022-07-17T14:22:49;5.03;;;1.43;;
4650;SDS011;2338;49.602;8.722;2022-07-17T14:25:36;3.77;;;1.50;;
4650;SDS011;2338;49.602;8.722;2022-07-17T14:28:21;3.57;;;1.60;;
4650;SDS011;2338;49.602;8.722;2022-07-17T14:31:06;2.93;;;1.23;;
4650;SDS011;2338;49.602;8.722;2022-07-17T14:33:52;2.60;;;1.20;;
4650;SDS011;2338;49.602;8.722;2022-07-17T14:36:38;6.20;;;1.57;;
4650;SDS011;2338;49.602;8.722;2022-07-17T14:39:24;3.30;;;1.87;;
4650;SDS011;2338;49.602;8.722;2022-07-17T14:42:12;5.10;;;2.10;;
4650;SDS011;2338;49.602;8.722;2022-07-17T14:44:58;3.43;;;1.53;;
4650;SDS011;2338;49.602;8.722;2022-07-17T14:47:43;4.80;;;2.00;;
4650;SDS011;2338;49.602;8.722;2022-07-17T14:50:29;2.77;;;1.43;;
4650;SDS011;2338;49.602;8.722;2022-07-17T14:53:14;5.60;;;1.30;;
4650;SDS011;2338;49.602;8.722;2022-07-17T14:56:00;3.73;;;1.87;;
4650;SDS011;2338;49.602;8.722;2022-07-17T14:58:47;2.60;;;1.20;;
4650;SDS011;2338;49.602;8.722;2022-07-17T15:01:33;2.50;;;1.20;;
4650;SDS011;2338;49.602;8.722;2022-07-17T15:04:18;3.90;;;1.47;;
4650;SDS011;2338;49.602;8.722;2022-07-17T15:07:04;2.60;;;1.37;;
4650;SDS011;2338;49.602;8.722;2022-07-17T15:09:50;3.47;;;1.50;;
4650;SDS011;2338;49.602;8.722;2022-07-17T15:12:36;2.93;;;1.33;;
4650;SDS011;2338;49.602;8.722;2022-07-17T15:15:22;3.90;;;1.37;;
4650;SDS011;2338;49.602;8.722;2022-07-17T15:18:08;2.83;;;1.17;;
4650;SDS011;2338;49.602;8.722;2022-07-17T15:20:54;3.80;;;1.80;;
4650;SDS011;2338;49.602;8.722;2022-07-17T15:23:40;3.67;;;1.70;;
4650;SDS011;2338;49.602;8.722;2022-07-17T15:26:26;3.47;;;1.40;;
4650;SDS011;2338;49.602;8.722;2022-07-17T15:29:11;10.47;;;1.70;;
4650;SDS011;2338;49.602;8.722;2022-07-17T15:31:58;4.30;;;1.30;;
4650;SDS011;2338;49.602;8.722;2022-07-17T15:34:44;3.23;;;1.60;;
4650;SDS011;2338;49.602;8.722;2022-07-17T15:37:30;4.17;;;1.30;;
4650;SDS011;2338;49.602;8.722;2022-07-17T15:40:16;3.00;;;1.50;;
4650;SDS011;2338;49.602;8.722;2022-07-17T15:43:03;4.23;;;1.57;;
4650;SDS011;2338;49.602;8.722;2022-07-17T15:45:49;6.90;;;3.33;;
4650;SDS011;2338;49.602;8.722;2022-07-17T15:48:36;3.43;;;1.27;;
4650;SDS011;2338;49.602;8.722;2022-07-17T15:51:22;3.73;;;1.80;;
4650;SDS011;2338;49.602;8.722;2022-07-17T15:54:07;3.57;;;1.40;;
4650;SDS011;2338;49.602;8.722;2022-07-17T15:56:53;2.80;;;1.47;;
4650;SDS011;2338;49.602;8.722;2022-07-17T15:59:38;4.67;;;1.37;;
4650;SDS011;2338;49.602;8.722;2022-07-17T16:02:24;4.10;;;1.80;;
4650;SDS011;2338;49.602;8.722;2022-07-17T16:05:11;3.90;;;2.10;;
4650;SDS011;2338;49.602;8.722;2022-07-17T16:07:56;3.07;;;1.43;;
4650;SDS011;2338;49.602;8.722;2022-07-17T16:10:42;3.73;;;1.40;;
4650;SDS011;2338;49.602;8.722;2022-07-17T16:13:28;2.80;;;1.53;;
4650;SDS011;2338;49.602;8.722;2022-07-17T16:16:14;2.93;;;1.50;;
4650;SDS011;2338;49.602;8.722;2022-07-17T16:18:59;3.77;;;1.67;;
4650;SDS011;2338;49.602;8.722;2022-07-17T16:21:46;5.33;;;1.90;;
4650;SDS011;2338;49.602;8.722;2022-07-17T16:24:32;2.97;;;1.57;;
4650;SDS011;2338;49.602;8.722;2022-07-17T16:27:19;3.33;;;1.47;;
4650;SDS011;2338;49.602;8.722;2022-07-17T16:30:05;11.53;;;1.30;;
4650;SDS011;2338;49.602;8.722;2022-07-17T16:32:52;2.67;;;1.23;;
4650;SDS011;2338;49.602;8.722;2022-07-17T16:35:37;4.50;;;1.37;;
4650;SDS011;2338;49.602;8.722;2022-07-17T16:38:25;3.63;;;1.50;;
4650;SDS011;2338;49.602;8.722;2022-07-17T16:41:11;6.47;;;1.50;;
4650;SDS011;2338;49.602;8.722;2022-07-17T16:43:56;2.60;;;1.20;;
4650;SDS011;2338;49.602;8.722;2022-07-17T16:46:42;3.70;;;1.90;;
4650;SDS011;2338;49.602;8.722;2022-07-17T16:49:27;2.90;;;1.30;;
4650;SDS011;2338;49.602;8.722;2022-07-17T16:52:13;3.30;;;1.47;;
4650;SDS011;2338;49.602;8.722;2022-07-17T16:55:00;2.87;;;1.30;;
4650;SDS011;2338;49.602;8.722;2022-07-17T16:57:46;7.00;;;1.57;;
4650;SDS011;2338;49.602;8.722;2022-07-17T17:00:32;3.37;;;1.97;;
4650;SDS011;2338;49.602;8.722;2022-07-17T17:03:18;4.73;;;1.80;;
4650;SDS011;2338;49.602;8.722;2022-07-17T17:06:04;3.47;;;1.87;;
4650;SDS011;2338;49.602;8.722;2022-07-17T17:08:50;6.03;;;2.00;;
4650;SDS011;2338;49.602;8.722;2022-07-17T17:11:37;3.20;;;1.83;;
4650;SDS011;2338;49.602;8.722;2022-07-17T17:14:23;4.43;;;1.70;;